createdAt,value
2024-04-06T00:01:07.836Z,71.18
2024-04-06T00:03:35.418Z,71.99
2024-04-06T00:06:21.186Z,71.07
2024-04-06T00:09:06.666Z,69.46
2024-04-06T00:11:34.124Z,69.57
2024-04-06T00:14:01.597Z,69.51
2024-04-06T00:16:29.450Z,70.41
2024-04-06T00:19:15.651Z,71.49
2024-04-06T00:21:43.215Z,72.53
2024-04-06T00:24:29.300Z,71.50
2024-04-06T00:26:56.883Z,69.88
2024-04-06T00:29:42.279Z,69.49
2024-04-06T00:32:09.690Z,69.51
2024-04-06T00:34:37.049Z,70.00
2024-04-06T00:37:22.436Z,70.59
2024-04-06T00:39:50.018Z,69.78
2024-04-06T00:42:17.442Z,67.71
2024-04-06T00:44:44.999Z,67.00
2024-04-06T00:47:30.934Z,67.22
2024-04-06T00:49:59.202Z,67.67
2024-04-06T00:52:26.621Z,68.14
2024-04-06T00:54:54.088Z,69.30
2024-04-06T00:57:39.760Z,68.47
2024-04-06T01:00:25.757Z,67.34
2024-04-06T01:03:11.141Z,67.34
2024-04-06T01:05:38.990Z,68.11
2024-04-06T01:08:06.885Z,69.24
2024-04-06T01:10:34.535Z,70.95
2024-04-06T01:13:19.799Z,70.96
2024-04-06T01:15:47.764Z,69.88
2024-04-06T01:18:15.234Z,69.93
2024-04-06T01:20:45.034Z,70.60
2024-04-06T01:23:13.542Z,70.98
2024-04-06T01:25:59.206Z,71.46
2024-04-06T01:28:44.577Z,70.09
2024-04-06T01:31:30.260Z,68.97
2024-04-06T01:34:15.662Z,68.33
2024-04-06T01:36:43.099Z,69.01
2024-04-06T01:39:28.575Z,70.35
2024-04-06T01:41:56.039Z,70.08
2024-04-06T01:44:41.516Z,67.82
2024-04-06T01:47:09.074Z,67.27
2024-04-06T01:49:54.971Z,68.59
2024-04-06T01:52:22.418Z,69.90
2024-04-06T01:54:49.869Z,70.78
2024-04-06T01:57:17.369Z,69.65
2024-04-06T01:59:47.344Z,68.51
2024-04-06T02:02:14.805Z,68.17
2024-04-06T02:04:42.281Z,68.72
2024-04-06T02:07:09.727Z,69.53
2024-04-06T02:09:37.210Z,69.90
2024-04-06T02:14:02.087Z,67.96
2024-04-06T02:16:29.560Z,66.50
2024-04-06T02:18:57.105Z,67.32
2024-04-06T02:21:42.384Z,67.58
2024-04-06T02:24:09.933Z,68.51
2024-04-06T02:26:37.712Z,68.89
2024-04-06T02:29:05.568Z,69.98
2024-04-06T02:31:33.571Z,68.36
2024-04-06T02:34:00.991Z,66.98
2024-04-06T02:36:28.350Z,66.75
2024-04-06T02:39:15.883Z,67.46
2024-04-06T02:41:43.378Z,68.07
2024-04-06T02:44:10.787Z,68.73
2024-04-06T02:46:56.298Z,70.06
2024-04-06T02:49:42.701Z,68.42
2024-04-06T02:52:28.171Z,66.98
2024-04-06T02:54:55.716Z,66.34
2024-04-06T02:57:23.185Z,66.11
2024-04-06T03:00:12.137Z,66.42
2024-04-06T03:02:39.788Z,67.08
2024-04-06T03:05:07.657Z,68.33
2024-04-06T03:07:53.289Z,67.79
2024-04-06T03:10:20.699Z,66.51
2024-04-06T03:13:06.380Z,66.52
2024-04-06T03:15:33.834Z,66.91
2024-04-06T03:18:01.740Z,67.12
2024-04-06T03:20:29.160Z,67.71
2024-04-06T03:23:03.596Z,68.83
2024-04-06T03:25:49.567Z,68.00
2024-04-06T03:28:35.052Z,66.56
2024-04-06T03:31:02.507Z,66.22
2024-04-06T03:33:29.880Z,66.90
2024-04-06T03:35:57.341Z,67.82
2024-04-06T03:38:42.592Z,69.09
2024-04-06T03:41:10.927Z,69.69
2024-04-06T03:43:56.549Z,68.05
2024-04-06T03:46:29.129Z,67.43
2024-04-06T03:48:57.263Z,67.52
2024-04-06T03:51:27.519Z,68.51
2024-04-06T03:54:13.411Z,68.96
2024-04-06T03:56:42.001Z,68.15
2024-04-06T03:59:27.593Z,66.52
2024-04-06T04:01:55.683Z,66.22
2024-04-06T04:04:23.019Z,66.96
2024-04-06T04:06:50.460Z,67.24
2024-04-06T04:09:18.038Z,67.28
2024-04-06T04:12:03.406Z,68.44
2024-04-06T04:14:30.926Z,67.92
2024-04-06T04:16:58.416Z,66.52
2024-04-06T04:19:44.006Z,66.47
2024-04-06T04:22:11.480Z,66.93
2024-04-06T04:24:39.018Z,67.71
2024-04-06T04:27:25.534Z,68.56
2024-04-06T04:29:53.594Z,67.68
2024-04-06T04:32:39.029Z,66.20
2024-04-06T04:35:06.828Z,66.23
2024-04-06T04:37:34.291Z,66.54
2024-04-06T04:40:19.788Z,66.86
2024-04-06T04:42:47.433Z,67.58
2024-04-06T04:45:15.960Z,68.61
2024-04-06T04:47:43.823Z,67.27
2024-04-06T04:50:29.467Z,65.51
2024-04-06T04:53:15.348Z,65.62
2024-04-06T04:56:01.301Z,66.51
2024-04-06T04:58:28.803Z,66.77
2024-04-06T05:00:56.258Z,68.03
2024-04-06T05:03:41.751Z,66.45
2024-04-06T05:06:09.448Z,65.32
2024-04-06T05:08:36.918Z,65.35
2024-04-06T05:11:04.903Z,65.77
2024-04-06T05:13:32.415Z,66.86
2024-04-06T05:16:17.874Z,66.93
2024-04-06T05:19:07.030Z,64.94
2024-04-06T05:21:34.732Z,64.59
2024-04-06T05:24:02.254Z,65.75
2024-04-06T05:26:29.915Z,65.71
2024-04-06T05:28:58.103Z,66.40
2024-04-06T05:31:25.543Z,66.54
2024-04-06T05:34:11.037Z,64.76
2024-04-06T05:36:56.613Z,64.58
2024-04-06T05:39:24.087Z,64.46
2024-04-06T05:41:51.925Z,64.91
2024-04-06T05:44:23.483Z,65.30
2024-04-06T05:47:08.777Z,64.36
2024-04-06T05:49:54.240Z,62.26
2024-04-06T05:52:40.331Z,61.53
2024-04-06T05:55:25.707Z,60.46
2024-04-06T05:57:53.369Z,60.61
2024-04-06T06:00:21.357Z,60.31
2024-04-06T06:02:48.794Z,59.98
2024-04-06T06:05:16.261Z,60.04
2024-04-06T06:07:43.728Z,59.96
2024-04-06T06:10:11.297Z,61.04
2024-04-06T06:12:58.530Z,59.56
2024-04-06T06:15:44.288Z,57.72
2024-04-06T06:18:11.864Z,57.52
2024-04-06T06:20:57.560Z,57.38
2024-04-06T06:23:25.080Z,57.37
2024-04-06T06:25:52.654Z,57.37
2024-04-06T06:28:20.425Z,57.69
2024-04-06T06:31:06.016Z,57.88
2024-04-06T06:33:51.672Z,57.26
2024-04-06T06:41:20.594Z,57.27
2024-04-06T06:44:05.968Z,57.56
2024-04-06T06:46:33.676Z,57.44
2024-04-06T06:49:19.461Z,57.56
2024-04-06T06:51:46.998Z,57.37
2024-04-06T06:54:33.290Z,56.92
2024-04-06T06:57:00.734Z,56.59
2024-04-06T07:00:20.232Z,56.72
2024-04-06T07:02:33.658Z,57.04
2024-04-06T07:05:01.202Z,56.96
2024-04-06T07:07:28.763Z,56.90
2024-04-06T07:09:56.317Z,56.37
2024-04-06T07:12:41.598Z,56.00
2024-04-06T07:15:09.047Z,54.29
2024-04-06T07:17:36.859Z,53.22
2024-04-06T07:20:04.989Z,53.63
2024-04-06T07:22:32.449Z,52.75
2024-04-06T07:25:19.667Z,52.01
2024-04-06T07:28:05.156Z,51.72
2024-04-06T07:30:50.637Z,51.40
2024-04-06T07:33:18.089Z,50.68
2024-04-06T07:36:03.783Z,50.66
2024-04-06T07:38:31.257Z,49.58
2024-04-06T07:41:17.011Z,49.89
2024-04-06T07:44:03.002Z,49.70
2024-04-06T07:46:48.992Z,49.73
2024-04-06T07:49:16.548Z,49.95
2024-04-06T07:51:44.729Z,49.84
2024-04-06T07:54:12.420Z,49.76
2024-04-06T07:56:39.969Z,49.69
2024-04-06T07:59:07.409Z,49.54
2024-04-06T08:01:34.911Z,49.27
2024-04-06T08:04:20.815Z,48.96
2024-04-06T08:07:08.345Z,49.16
2024-04-06T08:09:58.238Z,49.17
2024-04-06T08:12:26.746Z,49.24
2024-04-06T08:14:54.329Z,49.06
2024-04-06T08:17:41.383Z,49.25
2024-04-06T08:20:27.114Z,49.57
2024-04-06T08:22:54.697Z,49.75
2024-04-06T08:25:22.138Z,49.53
2024-04-06T08:27:49.700Z,49.66
2024-04-06T08:30:17.906Z,49.86
2024-04-06T08:32:46.763Z,50.09
2024-04-06T08:35:32.337Z,49.58
2024-04-06T08:37:59.998Z,49.75
2024-04-06T08:40:27.460Z,49.31
2024-04-06T08:42:57.068Z,49.13
2024-04-06T08:45:43.469Z,48.61
2024-04-06T08:48:11.067Z,48.52
2024-04-06T08:50:38.791Z,48.57
2024-04-06T08:53:24.468Z,48.55
2024-04-06T08:55:51.816Z,48.22
2024-04-06T08:58:19.314Z,47.94
2024-04-06T09:00:46.848Z,47.84
2024-04-06T09:03:35.194Z,48.08
2024-04-06T09:06:20.779Z,47.27
2024-04-06T09:09:07.992Z,47.33
2024-04-06T09:11:53.778Z,47.06
2024-04-06T09:14:23.062Z,47.45
2024-04-06T09:17:10.196Z,47.21
2024-04-06T09:19:37.778Z,47.65
2024-04-06T09:22:05.412Z,47.27
2024-04-06T09:24:55.412Z,47.26
2024-04-06T09:27:22.970Z,47.05
2024-04-06T09:29:50.445Z,46.44
2024-04-06T09:32:23.105Z,45.04
2024-04-06T09:34:53.419Z,45.38
2024-04-06T09:37:40.336Z,44.21
2024-04-06T09:40:12.011Z,44.21
2024-04-06T09:42:39.679Z,43.86
2024-04-06T09:45:25.065Z,45.08
2024-04-06T09:47:52.604Z,43.95
2024-04-06T09:50:39.608Z,43.60
2024-04-06T09:53:07.887Z,44.65
2024-04-06T09:55:53.369Z,45.08
2024-04-06T09:58:29.390Z,45.42
2024-04-06T10:01:17.723Z,46.63
2024-04-06T10:03:47.478Z,46.86
2024-04-06T10:06:22.904Z,47.34
2024-04-06T10:08:51.005Z,47.35
2024-04-06T10:11:36.496Z,47.71
2024-04-06T10:14:05.936Z,48.17
2024-04-06T10:16:34.479Z,47.75
2024-04-06T10:19:02.036Z,47.32
2024-04-06T10:21:37.257Z,47.40
2024-04-06T10:24:08.916Z,46.82
2024-04-06T10:26:37.001Z,46.72
2024-04-06T10:29:04.447Z,46.85
2024-04-06T10:31:42.236Z,46.23
2024-04-06T10:34:15.398Z,46.93
2024-04-06T10:36:42.900Z,46.66
2024-04-06T10:39:10.348Z,46.84
2024-04-06T10:41:38.937Z,46.57
2024-04-06T10:44:07.311Z,46.88
2024-04-06T10:46:35.246Z,47.60
2024-04-06T10:49:06.430Z,47.97
2024-04-06T10:51:34.644Z,47.83
2024-04-06T10:54:02.164Z,47.76
2024-04-06T10:56:29.739Z,47.69
2024-04-06T10:58:57.286Z,47.80
2024-04-06T11:01:25.049Z,48.54
2024-04-06T11:04:14.017Z,48.80
2024-04-06T11:06:41.792Z,48.67
2024-04-06T11:09:11.680Z,49.18
2024-04-06T11:11:39.802Z,48.96
2024-04-06T11:14:26.456Z,49.33
2024-04-06T11:16:54.974Z,49.50
2024-04-06T11:19:25.454Z,49.87
2024-04-06T11:22:11.069Z,49.16
2024-04-06T11:24:57.287Z,49.12
2024-04-06T11:27:51.871Z,49.01
2024-04-06T11:30:20.324Z,48.31
2024-04-06T11:33:05.911Z,48.36
2024-04-06T11:35:33.384Z,48.66
2024-04-06T11:38:18.781Z,49.23
2024-04-06T11:40:49.476Z,49.24
2024-04-06T11:43:34.769Z,49.46
2024-04-06T11:46:02.322Z,49.20
2024-04-06T11:48:31.861Z,50.20
2024-04-06T11:51:17.707Z,49.93
2024-04-06T11:53:48.647Z,49.22
2024-04-06T11:56:18.767Z,49.70
2024-04-06T11:58:46.226Z,50.41
2024-04-06T12:01:13.724Z,51.54
2024-04-06T12:03:41.261Z,53.17
2024-04-06T12:06:12.583Z,55.17
2024-04-06T12:08:58.472Z,56.42
2024-04-06T12:11:25.954Z,56.99
2024-04-06T12:13:54.514Z,58.40
2024-04-06T12:16:23.042Z,58.46
2024-04-06T12:18:51.390Z,60.48
2024-04-06T12:21:19.137Z,60.87
2024-04-06T12:24:04.924Z,61.69
2024-04-06T12:26:32.484Z,61.66
2024-04-06T12:29:00.164Z,62.24
2024-04-06T12:31:46.040Z,63.12
2024-04-06T12:34:31.417Z,63.49
2024-04-06T12:37:01.737Z,63.79
2024-04-06T12:39:29.193Z,64.64
2024-04-06T12:42:14.683Z,64.79
2024-04-06T12:44:42.238Z,66.07
2024-04-06T12:47:09.807Z,66.44
2024-04-06T12:49:37.858Z,66.96
2024-04-06T12:52:05.965Z,67.03
2024-04-06T12:54:33.411Z,64.55
2024-04-06T12:57:19.802Z,64.58
2024-04-06T12:59:47.255Z,63.97
2024-04-06T13:02:14.731Z,63.17
2024-04-06T13:04:42.184Z,63.56
2024-04-06T13:07:09.771Z,62.88
2024-04-06T13:09:37.329Z,62.41
2024-04-06T13:12:05.255Z,62.32
2024-04-06T13:14:32.740Z,62.68
2024-04-06T13:17:00.222Z,63.20
2024-04-06T13:19:27.891Z,62.34
2024-04-06T13:21:55.695Z,61.21
2024-04-06T13:24:24.076Z,61.46
2024-04-06T13:26:51.740Z,61.64
2024-04-06T13:29:19.412Z,61.52
2024-04-06T13:31:47.003Z,61.20
2024-04-06T13:34:14.427Z,61.71
2024-04-06T13:36:41.980Z,62.21
2024-04-06T13:39:13.331Z,62.73
2024-04-06T13:41:40.783Z,62.21
2024-04-06T13:44:08.337Z,61.15
2024-04-06T13:46:35.803Z,61.77
2024-04-06T13:49:03.982Z,61.30
2024-04-06T13:51:31.579Z,60.67
2024-04-06T13:53:58.983Z,60.67
2024-04-06T13:56:27.523Z,61.46
2024-04-06T13:58:56.376Z,61.79
2024-04-06T14:01:24.115Z,62.61
2024-04-06T14:03:51.784Z,61.08
2024-04-06T14:06:19.239Z,60.11
2024-04-06T14:08:47.261Z,59.82
2024-04-06T14:11:14.688Z,61.47
2024-04-06T14:13:42.943Z,60.48
2024-04-06T14:16:10.430Z,61.09
2024-04-06T14:18:37.981Z,60.60
2024-04-06T14:21:05.466Z,60.51
2024-04-06T14:23:32.879Z,60.55
2024-04-06T14:26:01.482Z,60.14
2024-04-06T14:28:29.068Z,60.23
2024-04-06T14:30:56.481Z,59.09
2024-04-06T14:33:24.038Z,59.95
2024-04-06T14:35:51.902Z,61.39
2024-04-06T14:38:19.253Z,59.86
2024-04-06T14:40:47.156Z,58.23
2024-04-06T14:43:16.921Z,58.15
2024-04-06T14:45:46.141Z,58.74
2024-04-06T14:48:13.696Z,58.87
2024-04-06T14:50:41.148Z,59.01
2024-04-06T14:53:08.737Z,58.83
2024-04-06T14:55:36.167Z,59.55
2024-04-06T14:58:04.277Z,58.86
2024-04-06T15:00:31.694Z,58.06
2024-04-06T15:02:59.149Z,57.99
2024-04-06T15:05:26.627Z,57.47
2024-04-06T15:07:54.582Z,57.29
2024-04-06T15:10:22.160Z,57.48
2024-04-06T15:12:49.810Z,56.93
2024-04-06T15:15:17.434Z,56.70
2024-04-06T15:17:44.954Z,56.91
2024-04-06T15:20:12.593Z,56.09
2024-04-06T15:22:41.370Z,56.19
2024-04-06T15:25:09.381Z,56.27
2024-04-06T15:27:37.064Z,56.46
2024-04-06T15:30:05.799Z,56.77
2024-04-06T15:32:34.498Z,57.45
2024-04-06T15:35:01.970Z,57.51
2024-04-06T15:37:29.439Z,57.67
2024-04-06T15:39:56.952Z,57.10
2024-04-06T15:42:24.828Z,57.46
2024-04-06T15:44:52.276Z,57.85
2024-04-06T15:47:19.868Z,57.96
2024-04-06T15:49:47.394Z,57.38
2024-04-06T15:52:14.853Z,56.38
2024-04-06T15:55:00.329Z,56.68
2024-04-06T15:57:27.892Z,57.02
2024-04-06T15:59:55.361Z,57.63
2024-04-06T16:02:24.710Z,57.39
2024-04-06T16:04:53.333Z,58.30
2024-04-06T16:07:20.789Z,58.23
2024-04-06T16:09:48.465Z,58.87
2024-04-06T16:12:16.313Z,58.45
2024-04-06T16:14:43.790Z,59.33
2024-04-06T16:17:11.244Z,59.61
2024-04-06T16:19:38.792Z,59.45
2024-04-06T16:22:06.401Z,59.77
2024-04-06T16:24:34.419Z,57.89
2024-04-06T16:27:01.883Z,56.95
2024-04-06T16:29:29.363Z,56.31
2024-04-06T16:31:56.899Z,56.13
2024-04-06T16:34:24.580Z,56.59
2024-04-06T16:36:52.427Z,56.83
2024-04-06T16:39:19.891Z,57.35
2024-04-06T16:41:47.396Z,58.09
2024-04-06T16:44:16.943Z,58.34
2024-04-06T16:46:44.403Z,58.83
2024-04-06T16:49:11.864Z,59.22
2024-04-06T16:51:39.319Z,59.42
2024-04-06T16:54:06.905Z,59.07
2024-04-06T16:56:34.337Z,57.45
2024-04-06T16:59:01.904Z,56.82
2024-04-06T17:01:29.366Z,57.00
2024-04-06T17:03:57.120Z,57.16
2024-04-06T17:06:25.013Z,57.43
2024-04-06T17:08:52.443Z,57.98
2024-04-06T17:11:19.995Z,58.35
2024-04-06T17:13:47.369Z,59.37
2024-04-06T17:16:14.952Z,60.14
2024-04-06T17:18:42.586Z,61.46
2024-04-06T17:21:10.744Z,61.02
2024-04-06T17:23:38.357Z,59.35
2024-04-06T17:26:05.973Z,58.66
2024-04-06T17:28:33.448Z,59.16
2024-04-06T17:31:00.926Z,59.52
2024-04-06T17:33:28.451Z,60.18
2024-04-06T17:35:56.009Z,60.42
2024-04-06T17:38:25.109Z,60.86
2024-04-06T17:40:52.670Z,61.36
2024-04-06T17:43:23.229Z,62.29
2024-04-06T17:45:50.643Z,62.47
2024-04-06T17:48:18.172Z,60.82
2024-04-06T17:50:45.675Z,59.94
2024-04-06T17:53:13.121Z,60.42
2024-04-06T17:55:41.333Z,60.35
2024-04-06T17:58:14.283Z,60.99
2024-04-06T18:00:45.926Z,61.45
2024-04-06T18:03:16.937Z,61.57
2024-04-06T18:05:44.349Z,62.57
2024-04-06T18:08:12.709Z,62.82
2024-04-06T18:10:41.032Z,62.03
2024-04-06T18:13:08.851Z,61.35
2024-04-06T18:15:36.823Z,61.41
2024-04-06T18:18:05.027Z,62.91
2024-04-06T18:20:32.555Z,63.44
2024-04-06T18:23:00.014Z,64.07
2024-04-06T18:25:27.498Z,65.42
2024-04-06T18:27:55.025Z,65.37
2024-04-06T18:30:22.512Z,64.03
2024-04-06T18:32:50.038Z,63.28
2024-04-06T18:35:17.517Z,63.37
2024-04-06T18:37:45.056Z,63.30
2024-04-06T18:40:12.633Z,64.14
2024-04-06T18:42:40.405Z,65.00
2024-04-06T18:45:08.047Z,65.23
2024-04-06T18:47:36.693Z,65.32
2024-04-06T18:50:07.802Z,64.07
2024-04-06T18:52:35.413Z,63.32
2024-04-06T18:55:03.867Z,63.79
2024-04-06T18:57:31.414Z,64.28
2024-04-06T18:59:58.932Z,65.30
2024-04-06T19:02:27.031Z,65.74
2024-04-06T19:04:56.307Z,66.13
2024-04-06T19:07:24.171Z,66.45
2024-04-06T19:09:51.539Z,65.09
2024-04-06T19:12:19.397Z,64.88
2024-04-06T19:14:46.874Z,65.02
2024-04-06T19:17:14.302Z,65.13
2024-04-06T19:19:41.863Z,65.46
2024-04-06T19:22:09.430Z,66.15
2024-04-06T19:24:36.876Z,67.31
2024-04-06T19:27:05.006Z,66.64
2024-04-06T19:29:32.517Z,64.42
2024-04-06T19:31:59.963Z,64.18
2024-04-06T19:34:27.966Z,64.43
2024-04-06T19:36:55.396Z,64.97
2024-04-06T19:39:22.888Z,65.35
2024-04-06T19:41:50.306Z,65.56
2024-04-06T19:44:17.759Z,66.61
2024-04-06T19:46:47.298Z,66.59
2024-04-06T19:49:15.663Z,64.95
2024-04-06T19:51:44.332Z,64.64
2024-04-06T19:54:12.114Z,64.58
2024-04-06T19:56:39.868Z,64.83
2024-04-06T19:59:07.337Z,65.66
2024-04-06T20:01:34.841Z,65.80
2024-04-06T20:04:02.544Z,66.52
2024-04-06T20:06:31.122Z,65.85
2024-04-06T20:09:11.184Z,63.55
2024-04-06T20:11:38.670Z,62.93
2024-04-06T20:14:06.219Z,63.26
2024-04-06T20:16:33.788Z,64.19
2024-04-06T20:19:01.968Z,64.97
2024-04-06T20:21:29.494Z,65.15
2024-04-06T20:24:15.891Z,65.71
2024-04-06T20:26:43.341Z,65.08
2024-04-06T20:29:10.796Z,63.49
2024-04-06T20:31:38.498Z,62.80
2024-04-06T20:34:06.339Z,62.87
2024-04-06T20:36:36.764Z,63.35
2024-04-06T20:39:09.568Z,63.88
2024-04-06T20:41:37.307Z,64.93
2024-04-06T20:44:05.374Z,65.94
2024-04-06T20:46:32.973Z,65.28
2024-04-06T20:49:00.602Z,63.50
2024-04-06T20:51:28.170Z,64.12
2024-04-06T20:53:55.614Z,65.07
2024-04-06T20:56:23.206Z,66.26
2024-04-06T20:58:50.627Z,65.91
2024-04-06T21:01:18.242Z,65.44
2024-04-06T21:03:45.752Z,65.36
2024-04-06T21:06:13.208Z,63.14
2024-04-06T21:08:44.982Z,61.32
2024-04-06T21:11:12.550Z,61.31
2024-04-06T21:13:40.530Z,61.35
2024-04-06T21:16:07.972Z,60.68
2024-04-06T21:18:36.009Z,61.32
2024-04-06T21:21:03.575Z,60.80
2024-04-06T21:23:31.044Z,60.89
2024-04-06T21:26:01.723Z,60.92
2024-04-06T21:28:29.869Z,60.31
2024-04-06T21:30:58.229Z,57.81
2024-04-06T21:33:25.876Z,58.19
2024-04-06T21:35:53.255Z,58.45
2024-04-06T21:38:21.206Z,58.97
2024-04-06T21:40:48.660Z,59.58
2024-04-06T21:43:16.133Z,59.84
2024-04-06T21:45:43.583Z,60.62
2024-04-06T21:48:11.056Z,61.88
2024-04-06T21:50:38.491Z,62.65
2024-04-06T21:53:05.984Z,61.52
2024-04-06T21:55:33.723Z,60.16
2024-04-06T21:58:01.174Z,59.92
2024-04-06T22:00:30.291Z,60.02
2024-04-06T22:02:57.723Z,60.39
2024-04-06T22:05:26.708Z,61.02
2024-04-06T22:07:54.074Z,61.64
2024-04-06T22:10:21.523Z,61.92
2024-04-06T22:12:49.009Z,62.40
2024-04-06T22:15:16.433Z,63.08
2024-04-06T22:17:43.890Z,62.21
2024-04-06T22:20:11.929Z,60.27
2024-04-06T22:22:39.445Z,59.53
2024-04-06T22:25:07.523Z,59.93
2024-04-06T22:27:34.950Z,60.68
2024-04-06T22:30:06.813Z,61.66
2024-04-06T22:32:34.306Z,62.63
2024-04-06T22:35:01.724Z,63.10
2024-04-06T22:37:32.152Z,64.11
2024-04-06T22:39:59.519Z,65.01
2024-04-06T22:42:27.777Z,64.08
2024-04-06T22:44:55.267Z,62.23
2024-04-06T22:47:22.694Z,61.39
2024-04-06T22:49:52.264Z,61.43
2024-04-06T22:52:19.761Z,62.02
2024-04-06T22:54:47.221Z,62.99
2024-04-06T22:57:14.718Z,63.77
2024-04-06T22:59:42.646Z,64.50
2024-04-06T23:02:10.002Z,65.45
2024-04-06T23:04:37.695Z,64.78
2024-04-06T23:07:05.116Z,62.72
2024-04-06T23:09:32.613Z,62.02
2024-04-06T23:12:00.136Z,62.07
2024-04-06T23:14:27.957Z,62.44
2024-04-06T23:16:57.117Z,63.34
2024-04-06T23:19:24.557Z,64.37
2024-04-06T23:21:52.053Z,64.95
2024-04-06T23:24:20.601Z,65.80
2024-04-06T23:26:47.945Z,64.98
2024-04-06T23:29:16.254Z,63.07
2024-04-06T23:31:43.719Z,62.19
2024-04-06T23:34:11.647Z,62.46
2024-04-06T23:36:39.477Z,63.09
2024-04-06T23:39:06.873Z,63.89
2024-04-06T23:41:34.362Z,64.30
2024-04-06T23:44:01.789Z,65.07
2024-04-06T23:46:29.242Z,65.94
2024-04-06T23:48:56.608Z,65.58
2024-04-06T23:51:24.050Z,63.40
2024-04-06T23:53:51.428Z,62.76
2024-04-06T23:56:18.869Z,63.26
2024-04-06T23:58:46.379Z,64.00
